| time (UTC) | temp F | wind direction | speed MPH | gust MPH | rain 1hr in | rain 24hr in | rain mn in | humidity % | barometer mb |
| 20260510121515 | 59 | 46 | 2.0 | 6.0 | 0.14 | 0.57 | 0.48 | 90 | 1014.5 |
| 20260510120016 | 59 | 48 | 2.0 | 11.0 | 0.38 | 0.56 | 0.46 | 90 | 1014.4 |
| 20260510114513 | 58 | 58 | 5.0 | 11.0 | 0.43 | 0.54 | 0.43 | 90 | 1014.1 |
| 20260510113009 | 58 | 16 | 7.0 | 14.0 | 0.43 | 0.54 | 0.43 | 90 | 1013.8 |
| 20260510111506 | 59 | 35 | 5.0 | 14.0 | 0.33 | 0.43 | 0.33 | 89 | 1013.0 |
| 20260510110007 | 61 | 360 | 7.0 | 13.0 | 0.09 | 0.19 | 0.09 | 88 | 1011.2 |
| 20260510104500 | 62 | 360 | 1.0 | 3.0 | 0.00 | 0.10 | 0.00 | 86 | 1010.5 |
| 20260510103001 | 62 | 360 | 2.0 | 4.0 | 0.00 | 0.10 | 0.00 | 86 | 1010.2 |
| 20260510101604 | 62 | 360 | 1.0 | 3.0 | 0.00 | 0.10 | 0.00 | 85 | 1010.0 |
| 20260510100059 | 62 | 360 | 1.0 | 8.0 | 0.00 | 0.10 | 0.00 | 84 | 1010.1 |
| 20260510094614 | 62 | 360 | 0.0 | 2.0 | 0.00 | 0.10 | 0.00 | 84 | 1009.6 |
| 20260510093059 | 62 | 360 | 0.0 | 1.0 | 0.00 | 0.10 | 0.00 | 83 | 1009.6 |
| 20260510091559 | 62 | 360 | 1.0 | 4.0 | 0.00 | 0.10 | 0.00 | 83 | 1009.6 |
| 20260510090058 | 62 | 360 | 0.0 | 3.0 | 0.00 | 0.10 | 0.00 | 83 | 1010.1 |
| 20260510084603 | 62 | 360 | 0.0 | 3.0 | 0.00 | 0.10 | 0.00 | 82 | 1009.7 |
| 20260510083115 | 63 | 360 | 1.0 | 4.0 | 0.00 | 0.10 | 0.00 | 82 | 1010.3 |
| 20260510081613 | 63 | 360 | 1.0 | 5.0 | 0.00 | 0.10 | 0.00 | 81 | 1010.3 |
| 20260510080053 | 63 | 360 | 2.0 | 5.0 | 0.00 | 0.10 | 0.00 | 81 | 1009.8 |
| 20260510074554 | 63 | 360 | 3.0 | 6.0 | 0.00 | 0.10 | 0.00 | 80 | 1010.2 |
| 20260510073054 | 63 | 360 | 2.0 | 13.0 | 0.00 | 0.10 | 0.00 | 80 | 1010.3 |
| 20260510071551 | 63 | 360 | 4.0 | 15.0 | 0.00 | 0.10 | 0.00 | 79 | 1010.5 |
| 20260510070047 | 62 | 360 | 4.0 | 12.0 | 0.00 | 0.10 | 0.00 | 80 | 1010.3 |
| 20260510064547 | 62 | 360 | 3.0 | 10.0 | 0.00 | 0.10 | 0.00 | 83 | 1010.4 |
| 20260510063045 | 62 | 360 | 4.0 | 9.0 | 0.00 | 0.10 | 0.00 | 83 | 1011.2 |
| 20260510061550 | 61 | 360 | 3.0 | 8.0 | 0.00 | 0.10 | 0.00 | 84 | 1012.1 |
| 20260510060043 | 61 | 360 | 3.0 | 6.0 | 0.00 | 0.10 | 0.00 | 85 | 1012.6 |
| 20260510054535 | 61 | 360 | 2.0 | 10.0 | 0.00 | 0.10 | 0.00 | 86 | 1012.2 |
| 20260510053033 | 61 | 360 | 3.0 | 10.0 | 0.01 | 0.10 | 0.00 | 87 | 1012.1 |
| 20260510051530 | 62 | 360 | 8.0 | 15.0 | 0.02 | 0.10 | 0.00 | 87 | 1011.3 |
| 20260510050032 | 62 | 360 | 2.0 | 11.0 | 0.04 | 0.10 | 0.00 | 88 | 1011.3 |
| 20260510044526 | 63 | 360 | 6.0 | 13.0 | 0.08 | 0.10 | 0.10 | 87 | 1010.0 |
| 20260510043026 | 64 | 360 | 2.0 | 6.0 | 0.09 | 0.09 | 0.09 | 86 | 1010.6 |
| 20260510041533 | 65 | 360 | 5.0 | 13.0 | 0.09 | 0.09 | 0.09 | 84 | 1011.7 |
| 20260510040024 | 66 | 360 | 5.0 | 17.0 | 0.06 | 0.06 | 0.06 | 79 | 1012.2 |
| 20260510034526 | 70 | 360 | 10.0 | 22.0 | 0.02 | 0.02 | 0.02 | 70 | 1011.8 |
| 20260510033017 | 77 | 360 | 3.0 | 8.0 | 0.00 | 0.00 | 0.00 | 56 | 1008.8 |
| 20260510031517 | 78 | 360 | 4.0 | 11.0 | 0.00 | 0.00 | 0.00 | 52 | 1006.2 |
| 20260510030016 | 78 | 360 | 4.0 | 13.0 | 0.00 | 0.00 | 0.00 | 52 | 1006.2 |
| 20260510024520 | 78 | 360 | 4.0 | 10.0 | 0.00 | 0.00 | 0.00 | 52 | 1006.2 |
| 20260510023015 | 77 | 360 | 3.0 | 8.0 | 0.00 | 0.00 | 0.00 | 51 | 1006.5 |
| 20260510021516 | 78 | 360 | 2.0 | 8.0 | 0.00 | 0.00 | 0.00 | 51 | 1006.5 |
| 20260510020013 | 77 | 360 | 3.0 | 11.0 | 0.00 | 0.00 | 0.00 | 51 | 1006.0 |
| 20260510014513 | 77 | 360 | 3.0 | 10.0 | 0.00 | 0.00 | 0.00 | 50 | 1005.1 |
| 20260510013011 | 78 | 360 | 2.0 | 8.0 | 0.00 | 0.00 | 0.00 | 49 | 1005.3 |
| 20260510011510 | 78 | 360 | 2.0 | 5.0 | 0.00 | 0.00 | 0.00 | 46 | 1005.5 |
| 20260510010008 | 79 | 360 | 2.0 | 5.0 | 0.00 | 0.00 | 0.00 | 46 | 1005.6 |
| 20260510004508 | 80 | 360 | 2.0 | 5.0 | 0.00 | 0.01 | 0.00 | 45 | 1005.7 |
| 20260510003008 | 80 | 360 | 2.0 | 5.0 | 0.00 | 0.01 | 0.00 | 44 | 1005.9 |
| 20260510001507 | 81 | 119 | 3.0 | 10.0 | 0.00 | 0.01 | 0.00 | 44 | 1005.6 |
| 20260510000005 | 82 | 128 | 2.0 | 7.0 | 0.00 | 0.01 | 0.00 | 43 | 1005.8 |
| 20260509234505 | 82 | 146 | 3.0 | 8.0 | 0.00 | 0.01 | 0.00 | 43 | 1005.7 |
| 20260509233003 | 84 | 182 | 3.0 | 9.0 | 0.00 | 0.01 | 0.00 | 41 | 1005.7 |
| 20260509231502 | 84 | 161 | 5.0 | 12.0 | 0.00 | 0.01 | 0.00 | 39 | 1005.8 |
| 20260509230100 | 85 | 146 | 4.0 | 12.0 | 0.00 | 0.01 | 0.00 | 38 | 1006.0 |
| 20260509224559 | 85 | 119 | 4.0 | 10.0 | 0.00 | 0.12 | 0.00 | 39 | 1006.0 |
| 20260509223057 | 85 | 176 | 3.0 | 9.0 | 0.00 | 0.12 | 0.00 | 38 | 1006.4 |
| 20260509221555 | 86 | 99 | 3.0 | 8.0 | 0.00 | 0.12 | 0.00 | 37 | 1006.6 |
| 20260509220056 | 86 | 164 | 2.0 | 10.0 | 0.00 | 0.12 | 0.00 | 38 | 1006.7 |
| 20260509214554 | 86 | 154 | 3.0 | 7.0 | 0.00 | 0.12 | 0.00 | 37 | 1006.6 |
| 20260509213052 | 86 | 185 | 1.0 | 7.0 | 0.00 | 0.12 | 0.00 | 37 | 1006.8 |
| 20260509211550 | 86 | 170 | 2.0 | 8.0 | 0.00 | 0.12 | 0.00 | 36 | 1006.9 |
| 20260509210053 | 86 | 126 | 4.0 | 9.0 | 0.00 | 0.12 | 0.00 | 33 | 1007.2 |
| 20260509204552 | 86 | 148 | 2.0 | 6.0 | 0.00 | 0.12 | 0.00 | 34 | 1007.2 |
| 20260509203044 | 86 | 141 | 2.0 | 8.0 | 0.00 | 0.12 | 0.00 | 35 | 1007.5 |
| 20260509201542 | 85 | 269 | 2.0 | 7.0 | 0.00 | 0.12 | 0.00 | 37 | 1007.6 |
| 20260509200044 | 85 | 180 | 1.0 | 4.0 | 0.00 | 0.12 | 0.00 | 34 | 1007.8 |
| 20260509194538 | 85 | 167 | 2.0 | 5.0 | 0.00 | 0.12 | 0.00 | 33 | 1008.1 |
| 20260509193037 | 85 | 204 | 3.0 | 7.0 | 0.00 | 0.12 | 0.00 | 37 | 1008.3 |
| 20260509191533 | 84 | 166 | 1.0 | 5.0 | 0.00 | 0.12 | 0.00 | 36 | 1008.4 |
| 20260509190031 | 83 | 104 | 1.0 | 6.0 | 0.00 | 0.12 | 0.00 | 39 | 1008.5 |
| 20260509184537 | 83 | 140 | 2.0 | 7.0 | 0.00 | 0.12 | 0.00 | 40 | 1008.8 |
| 20260509183026 | 83 | 119 | 1.0 | 6.0 | 0.00 | 0.12 | 0.00 | 42 | 1008.9 |
| 20260509181523 | 82 | 186 | 2.0 | 6.0 | 0.00 | 0.12 | 0.00 | 45 | 1009.0 |
| 20260509180023 | 82 | 205 | 3.0 | 7.0 | 0.00 | 0.12 | 0.00 | 47 | 1009.3 |
| 20260509174520 | 81 | 170 | 1.0 | 7.0 | 0.00 | 0.12 | 0.00 | 47 | 1009.4 |
| 20260509173019 | 81 | 175 | 3.0 | 8.0 | 0.00 | 0.12 | 0.00 | 51 | 1009.8 |
| 20260509171517 | 80 | 157 | 1.0 | 7.0 | 0.00 | 0.12 | 0.00 | 51 | 1010.0 |
| 20260509170016 | 80 | 277 | 2.0 | 5.0 | 0.00 | 0.12 | 0.00 | 51 | 1010.2 |
| 20260509164513 | 79 | 229 | 2.0 | 5.0 | 0.00 | 0.12 | 0.00 | 48 | 1010.3 |
| 20260509163010 | 79 | 137 | 2.0 | 4.0 | 0.00 | 0.12 | 0.00 | 50 | 1010.2 |
| 20260509161507 | 77 | 146 | 2.0 | 7.0 | 0.00 | 0.12 | 0.00 | 55 | 1010.4 |
| 20260509160005 | 77 | 156 | 2.0 | 7.0 | 0.00 | 0.12 | 0.00 | 56 | 1010.4 |
| 20260509154504 | 77 | 163 | 2.0 | 6.0 | 0.00 | 0.12 | 0.00 | 54 | 1010.2 |
| 20260509153105 | 75 | 169 | 2.0 | 7.0 | 0.00 | 0.12 | 0.00 | 54 | 1010.1 |
| 20260509151558 | 73 | 109 | 2.0 | 6.0 | 0.00 | 0.12 | 0.00 | 68 | 1010.2 |
| 20260509150055 | 72 | 137 | 2.0 | 3.0 | 0.00 | 0.12 | 0.00 | 73 | 1010.2 |
| 20260509144549 | 71 | 137 | 1.0 | 4.0 | 0.00 | 0.12 | 0.00 | 76 | 1010.1 |
| 20260509143051 | 70 | 138 | 1.0 | 3.0 | 0.00 | 0.12 | 0.00 | 80 | 1009.8 |
| 20260509141551 | 68 | 140 | 0.0 | 3.0 | 0.00 | 0.12 | 0.00 | 86 | 1010.1 |
| 20260509140047 | 65 | 169 | 1.0 | 4.0 | 0.00 | 0.12 | 0.00 | 93 | 1010.1 |
| 20260509134533 | 63 | 169 | 0.0 | 0.0 | 0.00 | 0.12 | 0.00 | 96 | 1010.1 |
| 20260509133029 | 61 | 169 | 0.0 | 0.0 | 0.00 | 0.12 | 0.00 | 96 | 1009.9 |
| 20260509131535 | 60 | 169 | 0.0 | 0.0 | 0.00 | 0.12 | 0.00 | 96 | 1009.8 |
| 20260509130031 | 58 | 169 | 0.0 | 0.0 | 0.00 | 0.12 | 0.00 | 96 | 1009.5 |
| 20260509124534 | 57 | 17 | 0.0 | 0.0 | 0.00 | 0.12 | 0.00 | 96 | 1009.5 |
| 20260509123040 | 55 | 17 | 0.0 | 0.0 | 0.00 | 0.12 | 0.00 | 96 | 1009.3 |